Terminal Aerodrome Forecast
Issued by NWS Buffalo, NY

Home | Current Version | Previous Version | Text Only | Print | Product List | Glossary On
Versions: 1 2 3 4 5 6 7 8 9 10 11 12 13 14 15 16 17 18 19 20 21 22 23 24 25 26 27 28 29 30 31 32
000
FTUS41 KBUF 272000 AAC
TAFART
TAF AMD
KART 272055Z 2721/2818 25011KT P6SM BKN025
      TEMPO 2721/2723 3SM -SHSN BKN019
     FM280100 23006KT P6SM SCT025
     FM281000 20008KT P6SM BKN025
     FM281400 21008KT P6SM SCT025=

USA.gov is the U.S. government's official web portal to all federal, state and local government web resources and services.